Time;durP1;ratioP1;P1;durP2;ratioP2;P2;SDS_P1;SDS_P2;PMS_P1;PMS_P2;Temp;Humidity;BMP_temperature;BMP_pressure;BME280_temperature;BME280_humidity;BME280_pressure;Samples;Min_cycle;Max_cycle;Signal;HPM_P1;HPM_P2
2023/09/05 00:01:03;;;;;;;4.70;3.17;;;18.10;99.90;;;;;;2495462;23;20773;-71
2023/09/05 00:02:04;;;;;;;4.55;2.95;;;18.20;99.90;;;;;;2495422;23;20119;-71
2023/09/05 00:03:04;;;;;;;4.05;3.05;;;18.10;99.90;;;;;;2495375;23;20007;-71
2023/09/05 00:04:05;;;;;;;4.93;3.67;;;18.10;99.90;;;;;;2482679;23;20090;-71
2023/09/05 00:05:07;;;;;;;3.85;3.20;;;18.10;99.90;;;;;;2482877;23;20004;-71
2023/09/05 00:06:10;;;;;;;4.85;3.50;;;18.10;99.90;;;;;;2494306;23;20003;-71
2023/09/05 00:07:11;;;;;;;3.42;3.13;;;18.10;99.90;;;;;;2494569;23;19996;-71
2023/09/05 00:08:12;;;;;;;4.20;3.42;;;18.10;99.90;;;;;;2493755;23;20011;-71
2023/09/05 00:09:14;;;;;;;4.45;2.83;;;18.10;99.90;;;;;;2493964;23;20055;-71
2023/09/05 00:10:15;;;;;;;4.80;3.30;;;18.10;99.90;;;;;;2494333;23;20004;-71
2023/09/05 00:11:15;;;;;;;4.18;3.10;;;18.10;99.90;;;;;;2495822;23;20030;-71
2023/09/05 00:12:16;;;;;;;3.33;3.03;;;18.10;99.90;;;;;;2495099;23;20832;-71
2023/09/05 00:13:16;;;;;;;3.42;2.60;;;18.00;99.90;;;;;;2495394;23;20026;-71
2023/09/05 00:14:18;;;;;;;9.82;3.22;;;18.00;99.90;;;;;;2495631;23;20010;-71
2023/09/05 00:15:19;;;;;;;5.13;3.42;;;18.00;99.90;;;;;;2494534;23;20436;-71
2023/09/05 00:16:20;;;;;;;6.82;3.10;;;18.00;99.90;;;;;;2495524;23;20591;-71
2023/09/05 00:17:20;;;;;;;3.53;3.22;;;18.00;99.90;;;;;;2495513;23;20008;-71
2023/09/05 00:18:21;;;;;;;3.50;3.20;;;18.00;99.90;;;;;;2494698;23;20049;-71
2023/09/05 00:19:21;;;;;;;6.32;2.95;;;18.00;99.90;;;;;;2494996;23;20010;-71
2023/09/05 00:20:22;;;;;;;5.47;3.20;;;17.90;99.90;;;;;;2494711;23;20723;-71
2023/09/05 00:21:23;;;;;;;5.32;3.08;;;17.90;99.90;;;;;;2495084;23;20071;-71
2023/09/05 00:22:23;;;;;;;3.63;3.20;;;17.90;99.90;;;;;;2495804;23;20007;-71
2023/09/05 00:23:24;;;;;;;3.63;3.30;;;17.90;99.90;;;;;;2482494;23;20007;-71
2023/09/05 00:24:35;;;;;;;4.88;3.30;;;17.90;99.90;;;;;;2482333;23;20008;-71
2023/09/05 00:25:35;;;;;;;4.28;2.90;;;17.90;99.90;;;;;;2495805;23;20378;-71
2023/09/05 00:26:36;;;;;;;3.85;2.83;;;17.90;99.90;;;;;;2493843;23;20011;-71
2023/09/05 00:27:39;;;;;;;4.20;2.78;;;17.90;99.90;;;;;;2495351;23;19999;-71
2023/09/05 00:28:43;;;;;;;3.60;3.03;;;17.90;99.90;;;;;;2481791;23;20004;-71
2023/09/05 00:29:43;;;;;;;3.00;2.70;;;17.90;99.90;;;;;;2483523;23;20068;-71
2023/09/05 00:30:45;;;;;;;3.85;2.70;;;17.90;99.90;;;;;;2494931;23;20011;-71
2023/09/05 00:31:49;;;;;;;3.25;2.95;;;17.90;99.90;;;;;;2495036;23;20059;-71
2023/09/05 00:32:50;;;;;;;3.50;3.03;;;17.80;99.90;;;;;;2495513;23;20007;-71
2023/09/05 00:33:50;;;;;;;3.63;3.15;;;17.80;99.90;;;;;;2494793;23;20032;-71
2023/09/05 00:34:51;;;;;;;3.47;3.17;;;17.80;99.90;;;;;;2495653;23;20015;-71
2023/09/05 00:35:53;;;;;;;3.00;2.78;;;17.80;99.90;;;;;;2494913;23;20014;-71
2023/09/05 00:36:53;;;;;;;3.22;2.92;;;17.80;99.90;;;;;;2495634;23;20015;-71
2023/09/05 00:37:54;;;;;;;3.72;2.30;;;17.80;99.90;;;;;;2494862;23;20086;-71
2023/09/05 00:38:55;;;;;;;4.20;3.35;;;17.70;99.90;;;;;;2492831;23;20495;-71
2023/09/05 00:39:55;;;;;;;4.07;2.75;;;17.70;99.90;;;;;;2494837;23;20010;-71
2023/09/05 00:40:56;;;;;;;3.17;2.63;;;17.70;99.90;;;;;;2495142;23;20007;-70
2023/09/05 00:41:57;;;;;;;3.25;2.95;;;17.70;99.90;;;;;;2495524;23;20385;-71
2023/09/05 00:42:58;;;;;;;3.80;2.90;;;17.70;99.90;;;;;;2494632;23;20002;-71
2023/09/05 00:43:59;;;;;;;5.50;2.97;;;17.70;99.90;;;;;;2495649;23;20009;-71
2023/09/05 00:44:59;;;;;;;4.47;3.03;;;17.70;99.90;;;;;;2494903;23;19999;-71
2023/09/05 00:46:00;;;;;;;5.22;2.92;;;17.70;99.90;;;;;;2495072;23;20062;-71
2023/09/05 00:47:01;;;;;;;3.40;3.08;;;17.70;99.90;;;;;;2494850;23;20042;-71
2023/09/05 00:48:07;;;;;;;3.63;2.70;;;17.70;99.90;;;;;;2495499;23;20006;-71
2023/09/05 00:49:10;;;;;;;5.43;2.90;;;17.60;99.90;;;;;;2494371;23;20003;-71
2023/09/05 00:50:11;;;;;;;3.92;3.20;;;17.60;99.90;;;;;;2495647;23;20000;-71
2023/09/05 00:51:12;;;;;;;3.83;3.00;;;17.60;99.90;;;;;;2495035;23;20015;-71
2023/09/05 00:52:14;;;;;;;3.90;2.53;;;17.60;99.90;;;;;;2495455;23;20054;-71
2023/09/05 00:53:14;;;;;;;3.58;2.92;;;17.60;99.90;;;;;;2494973;23;20011;-71
2023/09/05 00:54:15;;;;;;;3.78;2.83;;;17.60;99.90;;;;;;2494908;23;20014;-71
2023/09/05 00:55:15;;;;;;;3.03;2.72;;;17.60;99.90;;;;;;2495186;23;20642;-71
2023/09/05 00:56:16;;;;;;;3.55;2.80;;;17.50;99.90;;;;;;2495168;23;20042;-71
2023/09/05 00:57:17;;;;;;;3.00;2.78;;;17.50;99.90;;;;;;2494686;23;20432;-71
2023/09/05 00:58:23;;;;;;;3.53;2.88;;;17.50;99.90;;;;;;2495582;23;20053;-71
2023/09/05 00:59:23;;;;;;;8.82;2.75;;;17.50;99.90;;;;;;2494178;23;20011;-71
2023/09/05 01:00:24;;;;;;;5.43;3.05;;;17.50;99.90;;;;;;2495550;23;20007;-71
2023/09/05 01:01:25;;;;;;;3.97;3.17;;;17.50;99.90;;;;;;2495239;23;20012;-71
2023/09/05 01:02:25;;;;;;;3.03;2.83;;;17.50;99.90;;;;;;2495226;23;20014;-71
2023/09/05 01:03:26;;;;;;;4.72;2.97;;;17.50;99.90;;;;;;2494384;23;20014;-71
2023/09/05 01:04:26;;;;;;;4.13;3.00;;;17.50;99.90;;;;;;2495190;23;20460;-71
2023/09/05 01:05:33;;;;;;;2.80;2.53;;;17.50;99.90;;;;;;2482399;23;20734;-71
2023/09/05 01:06:57;;;;;;;3.67;2.60;;;17.50;99.90;;;;;;2483327;23;20083;-71
2023/09/05 01:08:04;;;;;;;4.40;2.90;;;17.50;99.90;;;;;;2494891;23;20390;-71
2023/09/05 01:09:21;;;;;;;3.70;2.50;;;17.40;99.90;;;;;;2493976;23;19995;-71
2023/09/05 01:10:34;;;;;;;5.70;3.25;;;17.40;99.90;;;;;;2493798;23;20003;-71
2023/09/05 01:11:35;;;;;;;4.30;2.72;;;17.40;99.90;;;;;;2494489;23;20499;-71
2023/09/05 01:12:36;;;;;;;4.65;2.60;;;17.40;99.90;;;;;;2495064;23;20038;-71
2023/09/05 01:13:37;;;;;;;3.17;2.50;;;17.40;99.90;;;;;;2494520;23;20014;-71
2023/09/05 01:14:38;;;;;;;3.83;2.88;;;17.40;99.90;;;;;;2493791;23;20380;-71
2023/09/05 01:15:38;;;;;;;3.63;2.80;;;17.40;99.90;;;;;;2495163;23;20007;-71
2023/09/05 01:16:43;;;;;;;2.67;2.47;;;17.40;99.90;;;;;;2495212;23;20417;-71
2023/09/05 01:17:44;;;;;;;4.18;2.95;;;17.40;99.90;;;;;;2495216;23;20007;-71
2023/09/05 01:18:46;;;;;;;3.63;3.10;;;17.30;99.90;;;;;;2493974;23;20003;-71
2023/09/05 01:19:50;;;;;;;2.92;2.70;;;17.30;99.90;;;;;;2495498;23;20011;-71
2023/09/05 01:21:15;;;;;;;5.45;2.83;;;17.30;99.90;;;;;;2494816;23;20342;-71
2023/09/05 01:22:41;;;;;;;3.70;2.53;;;17.30;99.90;;;;;;2493944;23;20042;-71
2023/09/05 01:24:08;;;;;;;4.25;3.22;;;17.30;99.90;;;;;;2495382;23;20011;-71
2023/09/05 01:25:11;;;;;;;3.13;2.35;;;17.20;99.90;;;;;;2476672;23;20014;-71
2023/09/05 01:26:11;;;;;;;3.90;2.33;;;17.20;99.90;;;;;;2494885;23;20031;-71
2023/09/05 01:27:17;;;;;;;3.13;2.83;;;17.20;99.90;;;;;;2495050;23;20000;-71
2023/09/05 01:28:23;;;;;;;2.60;2.40;;;17.20;99.90;;;;;;2494749;23;20018;-71
2023/09/05 01:29:30;;;;;;;2.72;2.53;;;17.20;99.90;;;;;;2494326;23;20010;-71
2023/09/05 01:30:30;;;;;;;3.08;2.50;;;17.20;99.90;;;;;;2495127;23;20045;-71
2023/09/05 01:31:32;;;;;;;3.13;2.72;;;17.20;99.90;;;;;;2492977;23;20010;-71
2023/09/05 01:32:32;;;;;;;4.00;2.80;;;17.20;99.90;;;;;;2494539;23;20142;-71
2023/09/05 01:33:40;;;;;;;4.72;2.75;;;17.20;99.90;;;;;;2494538;23;20083;-71
2023/09/05 01:34:41;;;;;;;3.33;2.70;;;17.20;99.90;;;;;;2494589;23;20302;-71
2023/09/05 01:35:41;;;;;;;4.63;2.92;;;17.20;99.90;;;;;;2494687;23;20007;-71
2023/09/05 01:36:42;;;;;;;3.08;2.80;;;17.20;99.90;;;;;;2482591;23;20007;-71
2023/09/05 01:37:42;;;;;;;3.00;2.70;;;17.20;99.90;;;;;;2482114;23;20003;-71
2023/09/05 01:38:43;;;;;;;3.88;2.92;;;17.20;99.90;;;;;;2494696;23;20060;-71
2023/09/05 01:39:44;;;;;;;4.78;2.58;;;17.20;99.90;;;;;;2495255;23;20037;-71
2023/09/05 01:40:45;;;;;;;3.17;2.70;;;17.20;99.90;;;;;;2494709;23;20534;-71
2023/09/05 01:41:45;;;;;;;4.13;2.65;;;17.20;99.90;;;;;;2495441;23;20336;-71
2023/09/05 01:42:46;;;;;;;3.28;2.97;;;17.20;99.90;;;;;;2494736;23;20007;-71
2023/09/05 01:43:46;;;;;;;3.72;2.60;;;17.20;99.90;;;;;;2494664;23;20003;-71
2023/09/05 01:44:47;;;;;;;4.50;2.55;;;17.20;99.90;;;;;;2495330;23;20479;-71
2023/09/05 01:45:47;;;;;;;4.55;2.63;;;17.20;99.90;;;;;;2493627;23;20011;-71
2023/09/05 01:46:48;;;;;;;3.75;3.08;;;17.20;99.90;;;;;;2494541;23;20007;-71
2023/09/05 01:47:49;;;;;;;3.05;2.70;;;17.10;99.90;;;;;;2494797;23;20010;-71
2023/09/05 01:48:49;;;;;;;3.28;2.47;;;17.10;99.90;;;;;;2494383;23;20007;-71
2023/09/05 01:49:50;;;;;;;4.70;2.80;;;17.10;99.90;;;;;;2482039;23;20008;-71
2023/09/05 01:50:50;;;;;;;3.88;2.72;;;17.10;99.90;;;;;;2482788;23;20019;-71
2023/09/05 01:51:51;;;;;;;2.97;2.67;;;17.10;99.90;;;;;;2482436;23;20472;-71
2023/09/05 01:52:51;;;;;;;4.93;3.08;;;17.10;99.90;;;;;;2482363;23;20008;-71
2023/09/05 01:53:52;;;;;;;5.10;2.88;;;17.10;99.90;;;;;;2493668;23;20038;-71
2023/09/05 01:54:53;;;;;;;3.13;2.75;;;17.10;99.90;;;;;;2482354;23;20012;-71
2023/09/05 01:55:54;;;;;;;4.30;3.30;;;17.10;99.90;;;;;;2482618;23;20004;-71
2023/09/05 01:56:54;;;;;;;5.32;3.00;;;17.10;99.90;;;;;;2495451;23;20843;-71
2023/09/05 01:57:55;;;;;;;3.55;2.60;;;17.10;99.90;;;;;;2495442;23;20008;-71
2023/09/05 01:58:55;;;;;;;5.43;3.20;;;17.10;99.90;;;;;;2495229;23;20011;-71
2023/09/05 01:59:56;;;;;;;7.45;2.92;;;17.10;99.90;;;;;;2494917;23;20599;-71
2023/09/05 02:01:01;;;;;;;3.60;2.85;;;17.10;99.90;;;;;;2493941;23;20018;-71
2023/09/05 02:02:02;;;;;;;3.85;2.83;;;17.10;99.90;;;;;;2496182;23;20413;-71
2023/09/05 02:03:03;;;;;;;3.83;3.15;;;17.10;99.90;;;;;;2495219;23;20780;-71
2023/09/05 02:04:04;;;;;;;4.70;2.80;;;17.10;99.90;;;;;;2495000;23;20364;-71
2023/09/05 02:05:06;;;;;;;4.72;3.20;;;17.10;99.90;;;;;;2495225;23;20381;-71
2023/09/05 02:06:07;;;;;;;4.97;2.83;;;17.10;99.90;;;;;;2495250;23;20083;-71
2023/09/05 02:07:09;;;;;;;3.53;2.50;;;17.00;99.90;;;;;;2495988;23;20007;-71
2023/09/05 02:08:09;;;;;;;5.55;3.30;;;17.00;99.90;;;;;;2495346;23;20433;-71
2023/09/05 02:09:10;;;;;;;3.72;2.70;;;17.00;99.90;;;;;;2494763;23;20369;-71
2023/09/05 02:10:10;;;;;;;3.17;2.78;;;17.00;99.90;;;;;;2496016;23;20398;-71
2023/09/05 02:11:11;;;;;;;5.03;2.50;;;17.00;99.90;;;;;;2495009;23;20010;-71
2023/09/05 02:12:12;;;;;;;2.75;2.47;;;17.00;99.90;;;;;;2496051;23;20011;-71
2023/09/05 02:13:13;;;;;;;7.15;3.25;;;17.00;99.90;;;;;;2494891;23;20102;-71
2023/09/05 02:14:13;;;;;;;4.78;2.58;;;17.00;99.90;;;;;;2483167;23;20099;-71
2023/09/05 02:15:14;;;;;;;6.97;3.28;;;17.00;99.90;;;;;;2483179;23;20020;-71
2023/09/05 02:16:18;;;;;;;3.55;2.75;;;17.00;99.90;;;;;;2495269;23;20079;-71
2023/09/05 02:17:20;;;;;;;3.78;2.75;;;17.00;99.90;;;;;;2495716;23;20090;-71
2023/09/05 02:18:21;;;;;;;4.90;2.92;;;17.00;99.90;;;;;;2483422;23;20007;-71
2023/09/05 02:19:23;;;;;;;5.18;2.80;;;17.00;99.90;;;;;;2482607;23;20079;-71
2023/09/05 02:20:24;;;;;;;3.65;2.85;;;17.00;99.90;;;;;;2495223;23;20015;-71
2023/09/05 02:21:24;;;;;;;4.18;3.10;;;17.00;99.90;;;;;;2495913;23;20034;-71
2023/09/05 02:22:25;;;;;;;5.03;2.80;;;16.90;99.90;;;;;;2495218;23;20007;-72
2023/09/05 02:23:27;;;;;;;5.97;2.97;;;16.90;99.90;;;;;;2495379;23;20007;-71
2023/09/05 02:24:28;;;;;;;3.63;2.65;;;16.90;99.90;;;;;;2495460;23;20006;-71
2023/09/05 02:25:28;;;;;;;3.22;2.78;;;16.90;99.90;;;;;;2483324;23;20083;-71
2023/09/05 02:26:29;;;;;;;3.33;2.45;;;16.90;99.90;;;;;;2483312;23;20015;-71
2023/09/05 02:27:29;;;;;;;3.60;2.67;;;16.90;99.90;;;;;;2495378;23;20448;-71
2023/09/05 02:28:30;;;;;;;3.75;2.80;;;16.90;99.90;;;;;;2495761;23;20014;-71
2023/09/05 02:29:32;;;;;;;2.90;2.70;;;16.90;99.90;;;;;;2482494;23;20038;-71
2023/09/05 02:30:35;;;;;;;4.60;3.20;;;16.90;99.90;;;;;;2482870;23;20007;-71
2023/09/05 02:31:36;;;;;;;3.22;2.60;;;16.90;99.90;;;;;;2495638;23;20050;-71
2023/09/05 02:32:36;;;;;;;5.70;2.63;;;16.90;99.90;;;;;;2495145;23;20011;-71
2023/09/05 02:33:37;;;;;;;9.48;3.15;;;16.90;99.90;;;;;;2495664;23;20026;-71
2023/09/05 02:34:38;;;;;;;3.75;2.85;;;16.90;99.90;;;;;;2495761;23;20362;-71
2023/09/05 02:35:38;;;;;;;4.57;2.83;;;16.90;99.90;;;;;;2495330;23;20087;-71
2023/09/05 02:36:39;;;;;;;3.78;3.20;;;16.90;99.90;;;;;;2495851;23;20067;-71
2023/09/05 02:37:39;;;;;;;3.85;2.95;;;16.90;99.90;;;;;;2495437;23;20087;-71
2023/09/05 02:38:40;;;;;;;4.10;2.90;;;16.90;99.90;;;;;;2494787;23;19999;-71
2023/09/05 02:39:40;;;;;;;4.03;2.80;;;16.80;99.90;;;;;;2495985;23;20010;-71
2023/09/05 02:40:47;;;;;;;5.45;3.10;;;16.80;99.90;;;;;;2495499;23;20310;-71
2023/09/05 02:41:48;;;;;;;3.20;2.90;;;16.80;99.90;;;;;;2495472;23;20010;-72
2023/09/05 02:42:48;;;;;;;2.80;2.60;;;16.80;99.90;;;;;;2495708;23;20003;-71
2023/09/05 02:43:50;;;;;;;3.03;2.60;;;16.80;99.90;;;;;;2495651;23;20007;-72
2023/09/05 02:44:51;;;;;;;3.45;3.20;;;16.80;99.90;;;;;;2495868;23;20006;-71
2023/09/05 02:45:52;;;;;;;5.40;2.90;;;16.80;99.90;;;;;;2495990;23;20369;-71
2023/09/05 02:46:52;;;;;;;3.60;2.67;;;16.80;99.90;;;;;;2495057;23;20031;-71
2023/09/05 02:47:54;;;;;;;2.58;2.38;;;16.80;99.90;;;;;;2495970;23;20035;-71
2023/09/05 02:48:55;;;;;;;3.10;2.80;;;16.80;99.90;;;;;;2494424;23;20004;-71
2023/09/05 02:49:56;;;;;;;3.10;2.85;;;16.80;99.90;;;;;;2495986;23;20003;-71
2023/09/05 02:51:03;;;;;;;4.25;2.83;;;16.80;99.90;;;;;;2495208;23;20007;-71
2023/09/05 02:52:04;;;;;;;5.55;2.63;;;16.80;99.90;;;;;;2495760;23;20003;-71
2023/09/05 02:53:05;;;;;;;3.15;2.63;;;16.80;99.90;;;;;;2495156;23;20027;-71
2023/09/05 02:54:05;;;;;;;5.68;2.80;;;16.70;99.90;;;;;;2495402;23;20003;-71
2023/09/05 02:55:06;;;;;;;2.88;2.42;;;16.70;99.90;;;;;;2495683;23;20007;-71
2023/09/05 02:56:07;;;;;;;6.45;2.90;;;16.70;99.90;;;;;;2495952;23;20006;-71
2023/09/05 02:57:07;;;;;;;4.32;3.08;;;16.80;99.90;;;;;;2495304;23;19999;-71
2023/09/05 02:58:08;;;;;;;3.10;2.58;;;16.80;99.90;;;;;;2496095;23;20480;-71
2023/09/05 02:59:08;;;;;;;3.97;3.00;;;16.70;99.90;;;;;;2495089;23;20003;-71
2023/09/05 03:00:09;;;;;;;3.70;2.63;;;16.70;99.90;;;;;;2495411;23;20034;-71
2023/09/05 03:01:11;;;;;;;6.25;2.90;;;16.70;99.90;;;;;;2495754;23;20404;-71
2023/09/05 03:02:12;;;;;;;3.38;2.45;;;16.70;99.90;;;;;;2495022;23;20102;-71
2023/09/05 03:03:13;;;;;;;2.85;2.60;;;16.70;99.90;;;;;;2482756;23;20019;-71
2023/09/05 03:04:14;;;;;;;4.95;3.00;;;16.70;99.90;;;;;;2483254;23;20023;-71
2023/09/05 03:05:15;;;;;;;2.65;2.40;;;16.70;99.90;;;;;;2494975;23;20018;-71
2023/09/05 03:06:16;;;;;;;6.13;2.85;;;16.70;99.90;;;;;;2496070;23;20013;-71
2023/09/05 03:07:18;;;;;;;3.20;2.80;;;16.70;99.90;;;;;;2495479;23;20517;-71
2023/09/05 03:08:18;;;;;;;5.43;2.63;;;16.70;99.90;;;;;;2494830;23;20078;-71
2023/09/05 03:09:19;;;;;;;3.88;2.30;;;16.70;99.90;;;;;;2494811;23;20010;-71
2023/09/05 03:10:20;;;;;;;4.68;2.67;;;16.70;99.90;;;;;;2482975;23;20004;-71
2023/09/05 03:11:20;;;;;;;5.50;2.95;;;16.70;99.90;;;;;;2483167;23;20007;-71
2023/09/05 03:12:21;;;;;;;3.53;2.67;;;16.70;99.90;;;;;;2494721;23;20007;-71
2023/09/05 03:13:21;;;;;;;2.83;2.53;;;16.60;99.90;;;;;;2494862;23;20008;-71
2023/09/05 03:14:22;;;;;;;3.00;2.22;;;16.70;99.90;;;;;;2495763;23;20026;-72
2023/09/05 03:15:23;;;;;;;3.47;2.67;;;16.60;99.90;;;;;;2496014;23;20038;-71
2023/09/05 03:16:24;;;;;;;3.92;2.30;;;16.70;99.90;;;;;;2495383;23;20078;-71
2023/09/05 03:17:24;;;;;;;3.33;2.28;;;16.70;99.90;;;;;;2495571;23;19999;-71
2023/09/05 03:18:25;;;;;;;3.22;2.30;;;16.60;99.90;;;;;;2495111;23;20007;-71
2023/09/05 03:19:25;;;;;;;3.05;2.72;;;16.60;99.90;;;;;;2495281;23;20022;-71
2023/09/05 03:20:26;;;;;;;3.33;2.67;;;16.60;99.90;;;;;;2495052;23;19999;-71
2023/09/05 03:21:26;;;;;;;3.75;2.47;;;16.60;99.90;;;;;;2494992;23;20381;-71
2023/09/05 03:22:27;;;;;;;2.97;2.60;;;16.60;99.90;;;;;;2495391;23;20007;-71
2023/09/05 03:23:28;;;;;;;3.85;2.60;;;16.60;99.90;;;;;;2495221;23;20086;-71
2023/09/05 03:24:28;;;;;;;4.32;3.15;;;16.60;99.90;;;;;;2495223;23;20325;-71
2023/09/05 03:25:29;;;;;;;2.70;2.30;;;16.60;99.90;;;;;;2496210;23;20003;-71
2023/09/05 03:26:29;;;;;;;3.30;3.00;;;16.60;99.90;;;;;;2495528;23;20007;-71
2023/09/05 03:27:30;;;;;;;3.05;2.50;;;16.60;99.90;;;;;;2495653;23;20369;-71
2023/09/05 03:28:42;;;;;;;3.47;2.85;;;16.60;99.90;;;;;;2482828;23;20341;-71
2023/09/05 03:29:42;;;;;;;3.20;2.88;;;16.60;99.90;;;;;;2485226;23;20359;-71
2023/09/05 03:30:43;;;;;;;2.72;2.53;;;16.50;99.90;;;;;;2495282;23;20015;-71
2023/09/05 03:31:44;;;;;;;3.80;3.10;;;16.60;99.90;;;;;;2495611;23;20007;-71
2023/09/05 03:32:44;;;;;;;2.78;2.58;;;16.50;99.90;;;;;;2494878;23;20015;-71
2023/09/05 03:33:45;;;;;;;4.70;2.63;;;16.50;99.90;;;;;;2495150;23;20022;-71
2023/09/05 03:34:48;;;;;;;2.70;2.50;;;16.50;99.90;;;;;;2495404;23;20025;-71
2023/09/05 03:35:49;;;;;;;3.05;2.33;;;16.50;99.90;;;;;;2483290;23;20155;-71
2023/09/05 03:36:49;;;;;;;3.10;2.80;;;16.50;99.90;;;;;;2483248;23;20063;-71
2023/09/05 03:37:50;;;;;;;4.78;3.10;;;16.50;99.90;;;;;;2495732;23;20366;-71
2023/09/05 03:38:50;;;;;;;5.28;3.00;;;16.50;99.90;;;;;;2493997;23;20011;-71
2023/09/05 03:39:51;;;;;;;3.17;2.83;;;16.50;99.90;;;;;;2496197;23;20015;-71
2023/09/05 03:40:53;;;;;;;4.40;2.78;;;16.50;99.90;;;;;;2495601;23;20007;-72
2023/09/05 03:41:54;;;;;;;5.47;2.65;;;16.50;99.90;;;;;;2495867;23;20409;-71
2023/09/05 03:42:55;;;;;;;6.50;2.63;;;16.50;99.90;;;;;;2495190;23;20388;-71
2023/09/05 03:43:55;;;;;;;3.35;2.42;;;16.50;99.90;;;;;;2495273;23;20022;-71
2023/09/05 03:44:56;;;;;;;9.07;2.70;;;16.50;99.90;;;;;;2495657;23;19999;-71
2023/09/05 03:45:56;;;;;;;2.45;2.25;;;16.40;99.90;;;;;;2495220;23;20003;-71
2023/09/05 03:46:57;;;;;;;2.38;2.13;;;16.50;99.90;;;;;;2495194;23;20078;-71
2023/09/05 03:48:01;;;;;;;2.80;2.60;;;16.40;99.90;;;;;;2483347;23;20496;-71
2023/09/05 03:49:01;;;;;;;4.75;2.33;;;16.40;99.90;;;;;;2481854;23;20000;-72
2023/09/05 03:50:02;;;;;;;3.72;2.33;;;16.40;99.90;;;;;;2495649;23;19998;-71
2023/09/05 03:51:03;;;;;;;3.88;2.90;;;16.40;99.90;;;;;;2494754;23;20113;-71
2023/09/05 03:52:04;;;;;;;2.75;2.47;;;16.50;99.90;;;;;;2494544;23;20015;-71
2023/09/05 03:53:04;;;;;;;5.53;2.42;;;16.40;99.90;;;;;;2495399;23;20607;-71
2023/09/05 03:54:05;;;;;;;2.83;2.45;;;16.40;99.90;;;;;;2494708;23;20007;-71
2023/09/05 03:55:06;;;;;;;3.90;2.80;;;16.40;99.90;;;;;;2495351;23;20035;-71
2023/09/05 03:56:08;;;;;;;4.40;2.75;;;16.40;99.90;;;;;;2495157;23;20011;-72
2023/09/05 03:57:08;;;;;;;3.63;2.55;;;16.40;99.90;;;;;;2495295;23;20003;-71
2023/09/05 03:58:11;;;;;;;5.40;2.70;;;16.40;99.90;;;;;;2495538;23;20010;-71
2023/09/05 03:59:11;;;;;;;3.13;2.83;;;16.40;99.90;;;;;;2494388;23;20110;-71
2023/09/05 04:00:12;;;;;;;3.28;2.55;;;16.40;99.90;;;;;;2495569;23;20003;-71
2023/09/05 04:01:16;;;;;;;3.10;2.55;;;16.40;99.90;;;;;;2495233;23;20023;-71
2023/09/05 04:02:17;;;;;;;3.22;2.63;;;16.40;99.90;;;;;;2495421;23;20011;-71
2023/09/05 04:03:17;;;;;;;2.33;2.13;;;16.30;99.90;;;;;;2495046;23;20007;-71
2023/09/05 04:04:18;;;;;;;3.67;2.72;;;16.30;99.90;;;;;;2495089;23;20499;-71
2023/09/05 04:05:18;;;;;;;3.95;2.92;;;16.30;99.90;;;;;;2495440;23;20098;-71
2023/09/05 04:06:19;;;;;;;2.75;2.53;;;16.30;99.90;;;;;;2495612;23;20007;-71
2023/09/05 04:07:21;;;;;;;5.75;2.55;;;16.30;99.90;;;;;;2482762;23;20032;-71
2023/09/05 04:08:22;;;;;;;5.05;3.10;;;16.30;99.90;;;;;;2471186;23;20136;-72
2023/09/05 04:09:22;;;;;;;6.22;2.85;;;16.30;99.90;;;;;;2481750;23;20124;-71
2023/09/05 04:10:23;;;;;;;3.67;2.95;;;16.30;99.90;;;;;;2495613;23;20011;-71
2023/09/05 04:11:24;;;;;;;3.30;2.40;;;16.30;99.90;;;;;;2495548;23;20121;-71
2023/09/05 04:12:24;;;;;;;3.42;3.08;;;16.30;99.90;;;;;;2495126;23;20014;-71
2023/09/05 04:13:25;;;;;;;4.15;2.60;;;16.30;99.90;;;;;;2495339;23;20090;-71
2023/09/05 04:14:26;;;;;;;5.93;2.97;;;16.30;99.90;;;;;;2495254;23;20011;-71
2023/09/05 04:15:27;;;;;;;3.35;2.80;;;16.30;99.90;;;;;;2494478;23;20610;-71
2023/09/05 04:16:27;;;;;;;3.17;2.88;;;16.30;99.90;;;;;;2482604;23;20004;-71
2023/09/05 04:17:28;;;;;;;4.38;2.42;;;16.30;99.90;;;;;;2482750;23;20463;-71
2023/09/05 04:18:28;;;;;;;3.30;3.00;;;16.20;99.90;;;;;;2494975;23;20106;-71
2023/09/05 04:19:29;;;;;;;4.30;2.70;;;16.30;99.90;;;;;;2494414;23;20003;-71
2023/09/05 04:20:31;;;;;;;5.60;2.55;;;16.20;99.90;;;;;;2494919;23;20420;-71
2023/09/05 04:21:31;;;;;;;3.88;3.15;;;16.30;99.90;;;;;;2495347;23;20007;-71
2023/09/05 04:22:32;;;;;;;2.72;2.50;;;16.30;99.90;;;;;;2482745;23;20031;-71
2023/09/05 04:23:32;;;;;;;5.35;2.97;;;16.20;99.90;;;;;;2482332;23;20053;-72
2023/09/05 04:24:33;;;;;;;5.13;2.80;;;16.30;99.90;;;;;;2494639;23;20031;-71
2023/09/05 04:25:40;;;;;;;3.70;2.70;;;16.30;99.90;;;;;;2495393;23;20011;-71
2023/09/05 04:26:44;;;;;;;4.20;2.90;;;16.20;99.90;;;;;;2495534;23;19996;-71
2023/09/05 04:27:45;;;;;;;3.03;2.70;;;16.30;99.90;;;;;;2495036;23;20428;-71
2023/09/05 04:28:46;;;;;;;4.45;3.58;;;16.20;99.90;;;;;;2493999;23;20012;-71
2023/09/05 04:29:50;;;;;;;4.13;3.17;;;16.20;99.90;;;;;;2495246;23;20003;-71
2023/09/05 04:30:51;;;;;;;6.25;3.20;;;16.20;99.90;;;;;;2495416;23;20085;-71
2023/09/05 04:31:52;;;;;;;3.63;2.65;;;16.20;99.90;;;;;;2495008;23;20089;-71
2023/09/05 04:32:54;;;;;;;3.08;2.67;;;16.20;99.90;;;;;;2495239;23;20812;-71
2023/09/05 04:33:54;;;;;;;3.47;3.00;;;16.20;99.90;;;;;;2494867;23;20332;-71
2023/09/05 04:34:56;;;;;;;5.00;3.22;;;16.10;99.90;;;;;;2495112;23;19999;-71
2023/09/05 04:35:57;;;;;;;3.40;3.05;;;16.20;99.90;;;;;;2494734;23;20504;-71
2023/09/05 04:36:58;;;;;;;3.30;2.88;;;16.10;99.90;;;;;;2494999;23;20394;-71
2023/09/05 04:37:59;;;;;;;4.93;2.85;;;16.20;99.90;;;;;;2495286;23;20187;-72
2023/09/05 04:39:01;;;;;;;4.82;3.30;;;16.20;99.90;;;;;;2494635;23;20000;-72
2023/09/05 04:40:02;;;;;;;4.22;2.90;;;16.20;99.90;;;;;;2494950;23;20010;-72
2023/09/05 04:41:04;;;;;;;3.78;2.92;;;16.10;99.90;;;;;;2494848;23;20017;-72
2023/09/05 04:42:04;;;;;;;5.03;3.53;;;16.20;99.90;;;;;;2482277;23;19996;-72
2023/09/05 04:43:05;;;;;;;5.85;3.70;;;16.20;99.90;;;;;;2482472;23;20083;-72
2023/09/05 04:44:06;;;;;;;5.43;3.35;;;16.10;99.90;;;;;;2495333;23;20034;-72
2023/09/05 04:45:07;;;;;;;5.65;3.30;;;16.10;99.90;;;;;;2494941;23;20027;-72
2023/09/05 04:46:09;;;;;;;4.65;3.30;;;16.10;99.90;;;;;;2494715;23;20074;-72
2023/09/05 04:47:26;;;;;;;6.15;3.58;;;16.10;99.90;;;;;;2494402;23;20068;-72
2023/09/05 04:48:26;;;;;;;5.35;3.38;;;16.10;99.90;;;;;;2495267;23;20044;-71
2023/09/05 04:49:27;;;;;;;6.13;3.22;;;16.10;99.90;;;;;;2494240;23;20003;-72
2023/09/05 04:50:27;;;;;;;3.67;3.30;;;16.10;99.90;;;;;;2495265;23;20010;-72
2023/09/05 04:51:28;;;;;;;5.55;3.70;;;16.10;99.90;;;;;;2495419;23;20867;-72
2023/09/05 04:52:29;;;;;;;6.53;3.30;;;16.10;99.90;;;;;;2494843;23;20007;-72
2023/09/05 04:53:30;;;;;;;4.15;3.20;;;16.10;99.90;;;;;;2494805;23;20007;-72
2023/09/05 04:54:31;;;;;;;5.32;4.47;;;16.10;99.90;;;;;;2494128;23;20504;-72
2023/09/05 04:55:32;;;;;;;9.05;3.92;;;16.10;99.90;;;;;;2493967;23;20428;-72
2023/09/05 04:56:32;;;;;;;4.18;3.30;;;16.10;99.90;;;;;;2495626;23;20011;-72
2023/09/05 04:57:33;;;;;;;6.47;3.47;;;16.10;99.90;;;;;;2494404;23;20007;-72
2023/09/05 04:58:33;;;;;;;4.95;3.70;;;16.10;99.90;;;;;;2495509;23;20451;-72
2023/09/05 04:59:34;;;;;;;5.53;3.05;;;16.10;99.90;;;;;;2494641;23;20067;-72
2023/09/05 05:00:35;;;;;;;3.95;3.60;;;16.10;99.90;;;;;;2494841;23;20145;-72
2023/09/05 05:01:35;;;;;;;6.45;3.83;;;16.10;99.90;;;;;;2495032;23;20202;-72
2023/09/05 05:02:36;;;;;;;4.00;3.45;;;16.10;99.90;;;;;;2494173;23;20610;-72
2023/09/05 05:03:36;;;;;;;6.57;3.65;;;16.10;99.90;;;;;;2494819;23;20004;-72
2023/09/05 05:04:37;;;;;;;4.60;3.33;;;16.10;99.90;;;;;;2494956;23;20051;-72
2023/09/05 05:05:38;;;;;;;4.10;3.58;;;16.10;99.90;;;;;;2494437;23;20014;-72
2023/09/05 05:06:38;;;;;;;3.45;3.13;;;16.00;99.90;;;;;;2495569;23;20008;-71
2023/09/05 05:07:42;;;;;;;6.43;3.47;;;16.10;99.90;;;;;;2494859;23;20007;-72
2023/09/05 05:08:42;;;;;;;5.82;3.60;;;16.10;99.90;;;;;;2493932;23;20127;-72
2023/09/05 05:09:44;;;;;;;4.45;3.67;;;16.10;99.90;;;;;;2482147;23;20011;-71
2023/09/05 05:10:45;;;;;;;4.07;3.10;;;16.00;99.90;;;;;;2483112;23;20022;-72
2023/09/05 05:11:45;;;;;;;5.38;3.67;;;16.10;99.90;;;;;;2495167;23;20018;-72
2023/09/05 05:12:46;;;;;;;3.58;3.05;;;16.00;99.90;;;;;;2495547;23;20460;-71
2023/09/05 05:13:47;;;;;;;4.53;3.55;;;16.10;99.90;;;;;;2495131;23;20102;-72
2023/09/05 05:14:47;;;;;;;6.13;3.28;;;16.10;99.90;;;;;;2495226;23;20090;-71
2023/09/05 05:15:48;;;;;;;3.45;3.15;;;16.00;99.90;;;;;;2495436;23;20129;-71
2023/09/05 05:16:49;;;;;;;4.38;3.75;;;16.10;99.90;;;;;;2494560;23;20003;-71
2023/09/05 05:17:49;;;;;;;4.10;3.50;;;16.10;99.90;;;;;;2494937;23;20015;-72
2023/09/05 05:18:50;;;;;;;4.15;3.10;;;16.00;99.90;;;;;;2494434;23;20008;-72
2023/09/05 05:19:50;;;;;;;6.03;4.20;;;16.10;99.90;;;;;;2495041;23;20074;-71
2023/09/05 05:20:51;;;;;;;4.22;3.50;;;16.10;99.90;;;;;;2495339;23;20358;-71
2023/09/05 05:21:52;;;;;;;4.28;3.17;;;16.00;99.90;;;;;;2495173;23;20010;-72